Time;durP1;ratioP1;P1;durP2;ratioP2;P2;SDS_P1;SDS_P2;PMS_P1;PMS_P2;Temp;Humidity;BMP_temperature;BMP_pressure;BME280_temperature;BME280_humidity;BME280_pressure;Samples;Min_cycle;Max_cycle;Signal;HPM_P1;HPM_P2
2022/01/20 00:00:21;;;;;;;11.43;9.83;;;;;;;8.46;51.25;99677.66;1745867;80;21050;-59
2022/01/20 00:02:45;;;;;;;12.05;9.63;;;;;;;8.45;51.20;99672.84;1741697;80;21038;-59
2022/01/20 00:26:40;;;;;;;11.20;9.45;;;;;;;8.43;51.07;99644.36;1759421;80;21088;-60
2022/01/20 00:29:00;;;;;;;11.22;9.80;;;;;;;8.42;51.07;99647.16;1758512;80;21049;-60
2022/01/20 00:31:48;;;;;;;10.53;9.43;;;;;;;8.42;51.07;99640.08;1761986;80;21092;-60
2022/01/20 00:34:12;;;;;;;11.97;9.35;;;;;;;8.42;51.03;99635.25;1751088;80;23483;-59
2022/01/20 00:39:22;;;;;;;11.70;10.05;;;;;;;8.42;51.00;99622.02;1761282;80;21073;-59
2022/01/20 00:41:48;;;;;;;11.60;10.10;;;;;;;8.41;50.99;99615.89;1715089;82;21136;-59
2022/01/20 00:44:14;;;;;;;13.10;10.45;;;;;;;8.41;50.96;99608.42;1754558;80;21518;-60
2022/01/20 00:46:41;;;;;;;13.18;10.68;;;;;;;8.41;50.95;99606.63;1763532;80;21131;-60
2022/01/20 00:49:07;;;;;;;12.98;10.08;;;;;;;8.41;50.93;99602.66;1779414;80;21037;-59
2022/01/20 00:51:34;;;;;;;11.78;9.58;;;;;;;8.41;50.91;99597.37;1765957;80;21490;-60
2022/01/20 00:54:00;;;;;;;12.03;10.40;;;;;;;8.41;50.89;99594.72;1765336;80;21006;-59
2022/01/20 00:56:26;;;;;;;11.28;9.73;;;;;;;8.42;50.89;99590.25;1769307;80;21037;-59
2022/01/20 00:58:53;;;;;;;12.95;9.45;;;;;;;8.42;50.87;99582.30;1767885;79;21139;-59
2022/01/20 01:01:19;;;;;;;11.95;10.43;;;;;;;8.42;50.85;99575.22;1777260;80;21033;-60
2022/01/20 01:03:46;;;;;;;14.15;10.65;;;;;;;8.42;50.83;99581.83;1768558;80;21090;-59
2022/01/20 01:06:37;;;;;;;11.05;9.75;;;;;;;8.43;50.80;99590.59;1768048;80;20994;-59
2022/01/20 01:08:53;;;;;;;11.73;9.95;;;;;;;8.42;50.78;99583.16;1769581;80;21604;-60
2022/01/20 01:11:21;;;;;;;11.63;9.90;;;;;;;8.42;50.77;99579.19;1763838;80;21137;-60
2022/01/20 01:13:49;;;;;;;11.97;10.48;;;;;;;8.42;50.76;99580.52;1772251;80;21049;-60
2022/01/20 01:16:18;;;;;;;13.20;10.50;;;;;;;8.42;50.73;99576.54;1770249;80;21038;-59
2022/01/20 01:21:41;;;;;;;12.35;10.15;;;;;;;8.41;50.71;99562.95;1751082;81;21498;-59
2022/01/20 01:23:57;;;;;;;13.13;10.05;;;;;;;8.42;50.70;99558.02;1759393;81;21960;-59
2022/01/20 01:26:27;;;;;;;12.43;9.65;;;;;;;8.42;50.69;99560.66;1753480;81;21047;-58
2022/01/20 01:28:52;;;;;;;11.73;10.50;;;;;;;8.41;50.64;99555.02;1753846;81;21082;-58
2022/01/20 01:33:57;;;;;;;14.00;11.18;;;;;;;8.40;50.65;99550.69;1746146;81;21034;-59
2022/01/20 01:36:21;;;;;;;13.43;10.32;;;;;;;8.40;50.63;99550.69;1743014;81;21155;-59
2022/01/20 01:38:47;;;;;;;12.33;10.60;;;;;;;8.40;50.63;99540.10;1757794;79;21549;-58
2022/01/20 01:41:20;;;;;;;14.80;10.60;;;;;;;8.40;50.63;99537.45;1744105;81;21027;-59
2022/01/20 01:43:48;;;;;;;13.48;10.75;;;;;;;8.41;50.61;99541.78;1751846;79;21066;-58
2022/01/20 01:46:15;;;;;;;11.28;9.80;;;;;;;8.40;50.58;99532.63;1754540;81;21081;-59
2022/01/20 01:48:44;;;;;;;11.83;10.15;;;;;;;8.40;50.58;99530.84;1752477;81;21149;-60
2022/01/20 01:51:11;;;;;;;13.95;11.45;;;;;;;8.40;50.56;99532.16;1744981;81;21069;-59
2022/01/20 01:53:40;;;;;;;12.65;10.18;;;;;;;8.40;50.54;99529.52;1747721;81;21097;-61
2022/01/20 01:56:07;;;;;;;13.15;10.43;;;;;;;8.40;50.52;99529.52;1742102;81;21085;-60
2022/01/20 01:58:36;;;;;;;13.00;9.83;;;;;;;8.39;50.52;99515.11;1760375;81;21011;-59
2022/01/20 02:01:19;;;;;;;12.43;10.43;;;;;;;8.40;50.49;99522.89;1758811;79;21940;-59
2022/01/20 02:03:56;;;;;;;12.85;10.25;;;;;;;8.40;50.49;99521.58;1765554;81;21042;-59
2022/01/20 02:09:44;;;;;;;12.33;10.55;;;;;;;8.39;50.46;99506.66;1758447;81;21078;-60
2022/01/20 02:19:49;;;;;;;11.83;10.40;;;;;;;8.38;50.43;99494.91;1742734;81;21057;-61
2022/01/20 02:22:21;;;;;;;12.23;10.03;;;;;;;8.37;50.42;99486.14;1741538;81;21042;-60
2022/01/20 02:24:49;;;;;;;11.43;9.43;;;;;;;8.37;50.42;99478.20;1743759;81;21081;-59
2022/01/20 02:27:16;;;;;;;11.25;9.63;;;;;;;8.37;50.43;99475.56;1760623;80;21133;-58
2022/01/20 02:29:44;;;;;;;12.33;9.73;;;;;;;8.37;50.41;99470.77;1778386;80;21517;-59
2022/01/20 02:32:11;;;;;;;12.07;10.38;;;;;;;8.37;50.42;99472.09;1766953;81;21529;-59
2022/01/20 02:34:38;;;;;;;11.63;9.55;;;;;;;8.37;50.41;99473.41;1742656;81;21019;-58
2022/01/20 02:37:11;;;;;;;12.23;9.35;;;;;;;8.36;50.37;99463.30;1749735;80;21108;-59
2022/01/20 02:44:56;;;;;;;11.63;9.75;;;;;;;8.37;50.35;99447.77;1742259;81;21410;-57
2022/01/20 02:47:29;;;;;;;11.57;9.80;;;;;;;8.38;50.34;99452.55;1750313;80;21094;-59
2022/01/20 02:49:57;;;;;;;;;;;;;;;8.38;50.34;99440.64;1739427;81;21030;-58
2022/01/20 02:52:24;;;;;;;13.15;9.70;;;;;;;8.37;50.31;99436.36;1748101;81;21148;-59
2022/01/20 02:54:51;;;;;;;10.85;9.63;;;;;;;8.36;50.31;99446.09;1766189;81;21592;-59
2022/01/20 02:57:18;;;;;;;13.48;11.08;;;;;;;8.36;50.33;99440.80;1754107;80;21046;-58
2022/01/20 02:59:45;;;;;;;11.35;9.40;;;;;;;8.36;50.31;99443.95;1751377;81;21527;-58
2022/01/20 03:02:13;;;;;;;11.43;10.20;;;;;;;8.36;50.29;99433.36;1746570;80;21030;-59
2022/01/20 03:04:40;;;;;;;11.05;9.95;;;;;;;8.36;50.30;99426.74;1743687;80;21118;-59
2022/01/20 03:07:10;;;;;;;12.70;10.25;;;;;;;8.36;50.28;99432.03;1761526;81;21035;-58
2022/01/20 03:09:36;;;;;;;11.65;9.73;;;;;;;8.37;50.26;99431.06;1763298;80;20987;-59
2022/01/20 03:12:04;;;;;;;11.35;9.75;;;;;;;8.36;50.25;99427.56;1753321;80;21026;-59
2022/01/20 03:14:32;;;;;;;12.07;9.80;;;;;;;8.36;50.25;99414.33;1748547;80;21034;-61
2022/01/20 03:16:59;;;;;;;11.85;10.23;;;;;;;8.37;50.24;99412.53;1742822;80;22363;-58
2022/01/20 03:19:25;;;;;;;11.60;9.98;;;;;;;8.36;50.21;99400.28;1753990;81;21030;-58
2022/01/20 03:21:51;;;;;;;13.35;10.53;;;;;;;8.36;50.20;99394.48;1756290;80;21478;-59
2022/01/20 03:24:18;;;;;;;11.83;10.23;;;;;;;8.36;50.19;99389.19;1754233;80;20999;-60
2022/01/20 03:26:44;;;;;;;11.05;9.90;;;;;;;8.36;50.16;99393.16;1758700;80;21086;-59
2022/01/20 03:29:11;;;;;;;12.73;10.50;;;;;;;8.37;50.16;99390.86;1758137;80;21135;-58
2022/01/20 03:31:38;;;;;;;11.35;9.45;;;;;;;8.36;50.13;99389.19;1760946;80;21089;-59
2022/01/20 03:34:06;;;;;;;11.53;9.58;;;;;;;8.36;50.12;99379.92;1773792;80;21085;-58
2022/01/20 03:36:33;;;;;;;10.60;9.35;;;;;;;8.37;50.12;99375.48;1752091;80;21026;-59
2022/01/20 03:39:03;;;;;;;13.18;10.28;;;;;;;8.37;50.11;99373.66;1762520;80;21554;-59
2022/01/20 03:41:30;;;;;;;11.10;9.75;;;;;;;8.37;50.09;99370.19;1770714;80;21139;-57
2022/01/20 03:43:57;;;;;;;13.15;10.13;;;;;;;8.36;50.07;99369.33;1754981;80;21541;-58
2022/01/20 03:46:24;;;;;;;10.85;9.28;;;;;;;8.36;50.08;99366.69;1751281;80;21102;-58
2022/01/20 03:48:52;;;;;;;11.73;9.63;;;;;;;8.36;50.06;99361.39;1744521;80;21545;-59
2022/01/20 03:51:21;;;;;;;10.80;9.20;;;;;;;8.34;50.04;99358.59;1750656;80;21042;-60
2022/01/20 03:53:50;;;;;;;10.65;9.28;;;;;;;8.34;50.04;99358.59;1753432;80;21099;-58
2022/01/20 03:56:18;;;;;;;11.93;9.75;;;;;;;8.35;50.03;99359.75;1793062;79;21006;-58
2022/01/20 03:58:52;;;;;;;12.23;10.05;;;;;;;8.34;50.03;99353.30;1771141;79;21046;-59
2022/01/20 04:01:19;;;;;;;10.72;9.30;;;;;;;8.33;50.01;99338.42;1734030;82;21094;-59
2022/01/20 04:03:56;;;;;;;10.88;9.53;;;;;;;8.32;50.02;99333.59;1744157;80;21632;-58
2022/01/20 04:06:27;;;;;;;12.53;9.80;;;;;;;8.32;50.01;99338.89;1751261;80;21446;-58
2022/01/20 04:08:54;;;;;;;12.68;9.90;;;;;;;8.31;49.99;99335.11;1759261;80;21530;-59
2022/01/20 04:11:23;;;;;;;10.10;9.03;;;;;;;8.30;49.99;99328.15;1772572;80;20983;-58
2022/01/20 04:13:50;;;;;;;15.00;10.60;;;;;;;8.30;49.99;99335.58;1749760;80;21085;-58
2022/01/20 04:16:34;;;;;;;12.15;10.08;;;;;;;8.30;49.97;99326.83;1743111;81;21010;-58
2022/01/20 04:18:56;;;;;;;10.85;9.68;;;;;;;8.29;49.99;99335.27;1763317;80;21081;-59
2022/01/20 04:21:28;;;;;;;11.43;9.83;;;;;;;8.28;49.97;99320.37;1755806;80;21263;-59
2022/01/20 04:23:55;;;;;;;11.40;9.73;;;;;;;8.28;49.96;99317.72;1774001;80;21046;-63
2022/01/20 04:26:22;;;;;;;12.80;9.80;;;;;;;8.28;49.94;99308.45;1769874;80;20999;-58
2022/01/20 04:28:56;;;;;;;11.73;10.50;;;;;;;8.26;49.96;99305.97;1773933;80;21577;-59
2022/01/20 04:31:19;;;;;;;10.90;9.60;;;;;;;8.27;49.96;99302.84;1740678;82;21296;-59
2022/01/20 04:33:46;;;;;;;12.00;10.68;;;;;;;8.25;49.93;99300.86;1775420;80;21076;-59
2022/01/20 04:36:13;;;;;;;13.30;10.55;;;;;;;8.25;49.93;99307.48;1752430;80;21011;-59
2022/01/20 04:38:39;;;;;;;10.93;9.73;;;;;;;8.24;49.91;99296.55;1736001;80;21093;-59
2022/01/20 04:41:06;;;;;;;11.93;9.63;;;;;;;8.24;49.91;99301.84;1742381;80;21075;-60
2022/01/20 04:43:33;;;;;;;12.40;9.88;;;;;;;8.23;49.89;99301.02;1763165;80;21505;-58
2022/01/20 04:46:09;;;;;;;12.00;10.30;;;;;;;8.24;49.89;99288.61;1760357;80;21018;-58
2022/01/20 04:59:15;;;;;;;12.78;9.98;;;;;;;8.19;49.87;99273.70;1766043;80;21089;-58
2022/01/20 05:01:45;;;;;;;12.75;9.93;;;;;;;8.18;49.87;99275.53;1757321;79;21030;-58
2022/01/20 05:04:18;;;;;;;13.88;10.95;;;;;;;8.18;49.88;99264.13;1760825;80;21045;-60
2022/01/20 05:06:55;;;;;;;11.28;10.10;;;;;;;8.17;49.86;99263.78;1740346;80;21046;-59
2022/01/20 05:09:21;;;;;;;12.10;10.80;;;;;;;8.16;49.86;99254.21;1767428;80;21308;-57
2022/01/20 05:11:58;;;;;;;11.65;10.38;;;;;;;8.15;49.86;99244.13;1729964;80;21629;-59
2022/01/20 05:14:20;;;;;;;11.65;10.35;;;;;;;8.15;49.86;99249.89;1760477;80;21489;-58
2022/01/20 05:16:47;;;;;;;12.05;10.40;;;;;;;8.15;49.83;99241.95;1757304;80;21108;-59
2022/01/20 05:19:13;;;;;;;11.68;9.70;;;;;;;8.15;49.84;99256.52;1753697;80;22130;-59
2022/01/20 05:21:40;;;;;;;10.78;9.65;;;;;;;8.14;49.83;99246.43;1759061;80;21151;-59
2022/01/20 05:24:09;;;;;;;11.70;10.30;;;;;;;8.13;49.83;99254.05;1743896;81;21029;-59
2022/01/20 05:26:35;;;;;;;12.80;10.60;;;;;;;8.13;49.81;99251.88;1750018;81;21549;-59
2022/01/20 05:29:02;;;;;;;12.70;10.40;;;;;;;8.13;49.78;99241.30;1748774;81;21018;-58
2022/01/20 05:31:29;;;;;;;11.90;9.88;;;;;;;8.11;49.79;99239.31;1750230;80;21487;-60
2022/01/20 05:33:55;;;;;;;11.85;10.60;;;;;;;8.11;49.76;99236.67;1747635;80;21088;-59
2022/01/20 05:36:21;;;;;;;11.40;10.20;;;;;;;8.11;49.78;99235.34;1752305;81;21078;-58
2022/01/20 05:38:48;;;;;;;11.55;10.18;;;;;;;8.11;49.75;99224.77;1748181;81;21054;-59
2022/01/20 05:41:15;;;;;;;12.50;10.58;;;;;;;8.11;49.74;99224.77;1757315;80;21144;-58
2022/01/20 05:43:42;;;;;;;13.38;10.63;;;;;;;8.10;49.73;99243.78;1758499;80;21070;-59
2022/01/20 05:46:09;;;;;;;11.45;10.25;;;;;;;8.10;49.72;99227.09;1743329;80;21141;-58
2022/01/20 05:48:37;;;;;;;11.18;9.75;;;;;;;8.08;49.71;99233.36;1765744;81;21007;-59
2022/01/20 05:51:21;;;;;;;10.90;9.78;;;;;;;8.09;49.69;99239.47;1761840;80;21041;-57
2022/01/20 05:53:48;;;;;;;12.18;10.53;;;;;;;8.07;49.70;99226.44;1758421;81;20999;-58
2022/01/20 05:56:15;;;;;;;10.70;9.60;;;;;;;8.07;49.69;99241.45;1736850;81;21018;-58
2022/01/20 05:58:42;;;;;;;12.85;10.28;;;;;;;8.06;49.69;99236.67;1757618;81;21103;-58
2022/01/20 06:01:10;;;;;;;10.95;9.63;;;;;;;8.07;49.69;99228.23;1756076;80;21030;-59
2022/01/20 06:03:36;;;;;;;11.63;9.83;;;;;;;8.05;49.68;99223.13;1744687;80;21070;-62
2022/01/20 06:06:06;;;;;;;12.10;10.45;;;;;;;8.05;49.65;99217.84;1761757;81;21025;-59
2022/01/20 06:08:37;;;;;;;12.68;9.93;;;;;;;8.06;49.64;99222.63;1758695;80;21076;-60
2022/01/20 06:11:04;;;;;;;11.73;9.08;;;;;;;8.05;49.65;99215.66;1751549;80;21112;-59
2022/01/20 06:13:31;;;;;;;10.88;9.40;;;;;;;8.05;49.62;99217.84;1736731;81;21474;-59
2022/01/20 06:15:58;;;;;;;11.78;9.73;;;;;;;8.06;49.61;99219.98;1753409;80;21018;-62
2022/01/20 06:18:25;;;;;;;12.13;9.98;;;;;;;8.05;49.59;99200.64;1743526;81;21070;-59
2022/01/20 06:20:54;;;;;;;12.00;9.25;;;;;;;8.05;49.59;99203.76;1759789;81;21118;-59
2022/01/20 06:23:21;;;;;;;13.13;9.83;;;;;;;8.05;49.57;99207.25;1750269;81;21176;-62
2022/01/20 06:25:48;;;;;;;10.70;9.23;;;;;;;8.04;49.56;99212.20;1754962;80;21474;-60
2022/01/20 06:28:15;;;;;;;9.95;8.90;;;;;;;8.05;49.54;99213.87;1741134;81;21077;-60
2022/01/20 06:30:42;;;;;;;11.30;9.75;;;;;;;8.06;49.53;99214.19;1740597;81;21626;-59
2022/01/20 06:33:09;;;;;;;10.15;8.88;;;;;;;8.07;49.51;99219.82;1752727;80;21043;-59
2022/01/20 06:35:37;;;;;;;12.18;10.25;;;;;;;8.06;49.48;99220.80;1764166;80;21136;-59
2022/01/20 06:38:04;;;;;;;12.80;10.13;;;;;;;8.06;49.46;99212.86;1758731;80;21105;-60
2022/01/20 06:40:31;;;;;;;10.65;9.55;;;;;;;8.08;49.45;99206.91;1749786;81;21323;-61
2022/01/20 06:42:58;;;;;;;11.43;10.20;;;;;;;8.10;49.42;99203.28;1759533;80;21553;-60
2022/01/20 06:45:25;;;;;;;11.03;9.23;;;;;;;8.10;49.41;99194.02;1763472;80;21084;-60
2022/01/20 06:47:53;;;;;;;11.63;10.43;;;;;;;8.10;49.37;99178.15;1758903;80;21097;-61
2022/01/20 06:50:20;;;;;;;11.08;9.73;;;;;;;8.11;49.36;99173.17;1737044;80;20991;-61
2022/01/20 06:52:47;;;;;;;10.72;9.05;;;;;;;8.11;49.33;99171.34;1747327;80;21069;-59
2022/01/20 06:55:15;;;;;;;10.68;9.38;;;;;;;8.11;49.32;99170.02;1747895;80;21128;-59
2022/01/20 06:57:42;;;;;;;10.05;9.03;;;;;;;8.13;49.28;99161.92;1737704;81;21038;-61
2022/01/20 07:00:15;;;;;;;10.00;9.00;;;;;;;8.14;49.24;99172.85;1741237;81;21968;-59
2022/01/20 07:02:43;;;;;;;11.12;9.90;;;;;;;8.14;49.24;99165.73;1751948;80;21009;-58
2022/01/20 07:05:12;;;;;;;10.75;9.45;;;;;;;8.14;49.19;99156.47;1735929;81;21042;-59
2022/01/20 07:07:38;;;;;;;10.55;8.88;;;;;;;8.14;49.19;99163.09;1737872;81;20975;-59
2022/01/20 07:10:08;;;;;;;11.93;9.78;;;;;;;8.15;49.16;99152.00;1750176;80;21108;-59
2022/01/20 07:12:41;;;;;;;10.68;9.58;;;;;;;8.16;49.13;99147.87;1750419;80;21088;-58
2022/01/20 07:15:08;;;;;;;11.33;9.60;;;;;;;8.16;49.09;99153.67;1741338;81;21057;-59
2022/01/20 07:17:35;;;;;;;12.60;10.23;;;;;;;8.17;49.07;99151.34;1753087;80;21105;-59
2022/01/20 07:20:01;;;;;;;11.20;10.00;;;;;;;8.18;49.07;99155.65;1744317;80;21534;-58
2022/01/20 07:22:29;;;;;;;12.37;9.15;;;;;;;8.19;49.03;99150.67;1745342;80;21026;-59
2022/01/20 07:24:58;;;;;;;11.40;9.33;;;;;;;8.20;49.01;99166.38;1730771;81;21214;-60
2022/01/20 07:27:32;;;;;;;11.40;9.03;;;;;;;8.22;48.96;99158.28;1724603;81;21012;-59
2022/01/20 07:29:58;;;;;;;11.53;9.40;;;;;;;8.23;48.95;99161.28;1738005;81;21517;-60
2022/01/20 07:32:25;;;;;;;10.85;9.50;;;;;;;8.25;48.93;99156.64;1728885;81;21057;-59
2022/01/20 07:36:58;;;;;;;10.70;9.03;;;;;;;8.32;48.87;99161.57;1772552;79;28109;-60
2022/01/20 07:39:24;;;;;;;13.62;10.58;;;;;;;8.32;48.82;99167.37;1734651;80;20970;-62
2022/01/20 07:41:51;;;;;;;11.95;9.75;;;;;;;8.35;48.79;99168.38;1741782;80;21192;-59
2022/01/20 07:44:37;;;;;;;11.60;9.68;;;;;;;8.38;48.78;99171.98;1735993;80;21092;-60
2022/01/20 07:47:05;;;;;;;11.63;9.98;;;;;;;8.39;48.74;99172.33;1728516;80;21029;-61
2022/01/20 07:49:32;;;;;;;10.43;9.03;;;;;;;8.41;48.70;99176.48;1733313;80;21056;-60
2022/01/20 07:51:58;;;;;;;11.43;9.63;;;;;;;8.42;48.67;99156.97;1728034;81;21021;-60
2022/01/20 07:54:25;;;;;;;11.28;9.40;;;;;;;8.44;48.65;99172.19;1734670;81;21214;-60
2022/01/20 07:56:52;;;;;;;12.90;10.05;;;;;;;8.47;48.63;99152.48;1735559;80;21046;-60
2022/01/20 07:59:18;;;;;;;10.72;9.60;;;;;;;8.49;48.59;99157.11;1750178;80;21501;-59
2022/01/20 08:01:46;;;;;;;12.70;10.75;;;;;;;8.52;48.53;99144.88;1731649;80;21065;-60
2022/01/20 08:04:13;;;;;;;10.85;9.75;;;;;;;8.54;48.49;99125.67;1734114;81;21616;-59
2022/01/20 08:06:40;;;;;;;12.33;10.03;;;;;;;8.56;48.47;99130.80;1727142;81;21195;-60
2022/01/20 08:09:09;;;;;;;11.55;9.90;;;;;;;8.58;48.41;99130.13;1728112;80;21062;-61
2022/01/20 08:11:37;;;;;;;10.63;9.48;;;;;;;8.61;48.37;99124.48;1751252;80;21022;-58
2022/01/20 08:14:10;;;;;;;12.85;9.18;;;;;;;8.64;48.34;99125.48;1741740;80;21045;-60
2022/01/20 08:16:36;;;;;;;12.15;9.48;;;;;;;8.66;48.29;99114.21;1741356;80;20999;-59
2022/01/20 08:19:03;;;;;;;11.00;9.48;;;;;;;8.68;48.26;99112.22;1737229;80;21592;-60
2022/01/20 08:21:30;;;;;;;12.23;10.38;;;;;;;8.70;48.25;99123.47;1739324;81;21037;-60
2022/01/20 08:23:58;;;;;;;11.25;9.88;;;;;;;8.73;48.20;99127.11;1737753;80;21894;-60
2022/01/20 08:26:25;;;;;;;12.37;9.95;;;;;;;8.76;48.16;99120.12;1732125;81;21561;-60
2022/01/20 08:28:54;;;;;;;10.82;9.28;;;;;;;8.79;48.11;99131.71;1736257;81;21470;-61
2022/01/20 08:31:20;;;;;;;10.85;9.48;;;;;;;8.81;48.10;99129.72;1739251;81;21133;-60
2022/01/20 08:33:47;;;;;;;12.10;10.15;;;;;;;8.85;48.29;99126.23;1739683;81;21029;-65
2022/01/20 08:36:15;;;;;;;11.25;9.08;;;;;;;8.88;48.36;99133.00;1730036;81;21041;-60
2022/01/20 08:38:44;;;;;;;12.55;10.65;;;;;;;8.92;48.40;99131.65;1735542;81;21093;-61
2022/01/20 08:41:10;;;;;;;9.70;8.68;;;;;;;8.96;48.42;99130.30;1730936;81;21073;-60
2022/01/20 08:43:38;;;;;;;13.00;10.60;;;;;;;8.98;48.43;99126.50;1727622;81;21126;-57
2022/01/20 08:46:07;;;;;;;11.95;9.38;;;;;;;9.03;48.39;99119.35;1732170;80;21085;-58
2022/01/20 08:48:36;;;;;;;12.75;10.50;;;;;;;9.06;48.38;99124.31;1740617;81;21076;-59
2022/01/20 08:51:11;;;;;;;10.93;9.38;;;;;;;9.10;48.34;99124.77;1745313;80;21056;-58
2022/01/20 08:53:39;;;;;;;10.08;9.00;;;;;;;9.15;48.29;99116.63;1738354;80;21026;-60
2022/01/20 08:56:07;;;;;;;10.93;9.25;;;;;;;9.20;48.25;99114.80;1729448;81;21119;-60
2022/01/20 08:58:34;;;;;;;12.43;9.70;;;;;;;9.24;48.17;99102.34;1731913;80;21042;-58
2022/01/20 09:01:02;;;;;;;9.65;8.55;;;;;;;9.30;48.11;99100.81;1739235;81;21070;-58
2022/01/20 09:03:32;;;;;;;12.37;9.70;;;;;;;9.36;48.05;99094.80;1733529;81;21164;-59
2022/01/20 09:05:58;;;;;;;10.50;8.05;;;;;;;9.43;47.98;99097.59;1750333;80;21104;-58
2022/01/20 09:08:26;;;;;;;10.53;8.60;;;;;;;9.50;47.89;99083.92;1750625;81;21150;-59
2022/01/20 09:10:55;;;;;;;10.70;8.93;;;;;;;9.57;47.81;99091.50;1742193;80;21027;-59
2022/01/20 09:16:09;;;;;;;10.58;9.05;;;;;;;9.74;47.64;99077.62;1730312;80;22481;-58
2022/01/20 09:18:47;;;;;;;9.88;8.45;;;;;;;9.83;47.58;99069.07;1730727;81;21029;-59
2022/01/20 09:21:20;;;;;;;10.45;8.95;;;;;;;9.94;47.49;99056.70;1728464;80;21518;-58
2022/01/20 09:23:42;;;;;;;10.60;9.38;;;;;;;10.02;47.42;99056.64;1738084;80;21073;-59
2022/01/20 09:26:08;;;;;;;11.78;9.38;;;;;;;10.11;47.33;99048.59;1745230;80;21038;-59
2022/01/20 09:28:37;;;;;;;12.23;8.93;;;;;;;10.19;47.26;99045.33;1730867;81;21099;-59
2022/01/20 09:31:03;;;;;;;11.97;10.08;;;;;;;10.28;47.17;99046.59;1742222;81;21493;-59
2022/01/20 09:33:30;;;;;;;10.90;9.75;;;;;;;10.36;47.12;99034.06;1739056;81;21088;-59
2022/01/20 09:35:58;;;;;;;12.13;9.25;;;;;;;10.45;47.06;99012.72;1740209;80;21124;-59
2022/01/20 09:38:26;;;;;;;9.80;8.18;;;;;;;10.53;46.96;99010.80;1739947;80;21104;-60
2022/01/20 09:40:54;;;;;;;10.48;8.63;;;;;;;10.62;46.89;99016.33;1744899;80;21601;-59
2022/01/20 09:43:21;;;;;;;11.40;9.43;;;;;;;10.72;46.81;99011.20;1747148;80;21060;-59
2022/01/20 09:45:53;;;;;;;10.15;8.53;;;;;;;10.80;46.72;99008.45;1743367;80;21056;-59
2022/01/20 09:48:20;;;;;;;10.10;8.47;;;;;;;10.89;46.63;98997.19;1733889;81;21013;-59
2022/01/20 09:50:49;;;;;;;9.50;8.50;;;;;;;10.99;46.55;99007.00;1751870;80;21557;-59
2022/01/20 09:53:23;;;;;;;8.78;7.87;;;;;;;11.09;46.44;99002.73;1749587;80;21077;-59
2022/01/20 09:55:57;;;;;;;10.43;8.20;;;;;;;11.17;46.29;98995.95;1725284;80;21486;-58
2022/01/20 09:58:24;;;;;;;9.58;8.58;;;;;;;11.28;46.17;98993.27;1749661;80;21105;-57
2022/01/20 10:00:58;;;;;;;9.60;8.25;;;;;;;11.36;46.09;98987.33;1744605;80;21034;-57
2022/01/20 10:03:22;;;;;;;9.95;8.90;;;;;;;11.46;45.99;98988.33;1735566;80;21045;-58
2022/01/20 10:05:52;;;;;;;9.68;8.10;;;;;;;11.55;45.89;98973.03;1726222;81;21525;-58
2022/01/20 10:08:24;;;;;;;11.43;8.43;;;;;;;11.65;45.80;98968.70;1710647;82;21542;-58
2022/01/20 10:10:57;;;;;;;10.13;7.62;;;;;;;11.74;45.72;98967.06;1691601;82;25617;-58
2022/01/20 10:13:32;;;;;;;10.48;8.80;;;;;;;11.84;45.65;98965.39;1690115;84;21004;-58
2022/01/20 10:16:15;;;;;;;10.08;7.50;;;;;;;11.94;45.58;98953.90;1690473;84;21533;-59
2022/01/20 10:18:57;;;;;;;8.50;7.60;;;;;;;12.03;45.49;98955.88;1683708;83;21049;-57
2022/01/20 10:21:34;;;;;;;8.33;7.22;;;;;;;12.12;45.45;98947.23;1697300;83;21486;-59
2022/01/20 10:24:11;;;;;;;9.05;7.95;;;;;;;12.20;45.39;98955.05;1678667;84;21167;-59
2022/01/20 10:26:40;;;;;;;9.85;8.23;;;;;;;12.27;45.36;98935.94;1697458;83;21073;-59
2022/01/20 10:29:14;;;;;;;9.45;8.18;;;;;;;12.33;45.36;98932.47;1686243;83;21021;-59
2022/01/20 10:31:51;;;;;;;10.08;7.95;;;;;;;12.39;45.30;98928.19;1698608;84;21532;-59
2022/01/20 10:34:30;;;;;;;9.13;7.90;;;;;;;12.46;45.22;98920.20;1687182;83;21054;-58
2022/01/20 10:37:04;;;;;;;9.60;7.80;;;;;;;12.51;45.19;98927.91;1682052;84;21225;-61
2022/01/20 10:39:45;;;;;;;8.78;7.87;;;;;;;12.58;45.13;98915.44;1696184;83;21035;-59
2022/01/20 10:42:20;;;;;;;7.97;7.17;;;;;;;12.64;45.13;98903.67;1684983;83;21066;-59
2022/01/20 10:44:53;;;;;;;11.05;8.08;;;;;;;12.72;45.11;98898.15;1668083;83;21041;-60
2022/01/20 10:47:25;;;;;;;8.37;7.47;;;;;;;12.79;45.10;98895.80;1739307;80;21046;-58
2022/01/20 10:49:53;;;;;;;9.45;8.30;;;;;;;12.86;45.06;98891.80;1735175;82;21509;-59
2022/01/20 10:52:23;;;;;;;9.43;7.25;;;;;;;12.94;44.98;98890.29;1735827;80;21053;-58
2022/01/20 10:54:54;;;;;;;9.40;7.45;;;;;;;13.00;44.93;98877.98;1732537;80;21493;-59
2022/01/20 10:57:33;;;;;;;8.98;7.28;;;;;;;13.07;44.91;98875.31;1742464;80;21084;-59
2022/01/20 11:00:08;;;;;;;8.93;7.55;;;;;;;13.15;44.89;98870.61;1735828;82;21069;-58
2022/01/20 11:02:51;;;;;;;9.05;7.90;;;;;;;13.26;44.85;98864.33;1736000;82;21229;-60
2022/01/20 11:05:18;;;;;;;9.05;8.05;;;;;;;13.36;44.80;98854.08;1731419;80;21049;-60
2022/01/20 11:07:45;;;;;;;8.03;7.10;;;;;;;13.45;44.74;98848.84;1724000;82;21084;-61
2022/01/20 11:10:12;;;;;;;10.68;7.67;;;;;;;13.52;44.74;98845.65;1726611;82;21054;-59
2022/01/20 11:12:41;;;;;;;8.93;7.45;;;;;;;13.66;44.69;98854.95;1736507;80;21518;-60
2022/01/20 11:15:28;;;;;;;9.18;7.78;;;;;;;13.76;44.66;98847.32;1730692;81;21136;-61
2022/01/20 11:17:56;;;;;;;8.45;7.22;;;;;;;13.84;44.60;98853.75;1732413;82;21014;-60
2022/01/20 11:20:26;;;;;;;9.43;7.75;;;;;;;13.90;44.53;98854.23;1724104;82;21042;-58
2022/01/20 11:23:04;;;;;;;9.78;7.97;;;;;;;13.92;44.46;98850.84;1738614;80;21573;-59
2022/01/20 11:25:39;;;;;;;8.25;7.37;;;;;;;13.94;44.41;98855.97;1731348;82;21069;-60
2022/01/20 11:28:22;;;;;;;7.37;6.60;;;;;;;13.93;44.38;98852.49;1732752;82;21206;-59
2022/01/20 11:31:04;;;;;;;10.18;7.70;;;;;;;13.94;44.36;98855.45;1735982;80;21066;-61
2022/01/20 11:33:48;;;;;;;8.40;6.90;;;;;;;13.95;44.29;98849.09;1738917;81;21077;-61
2022/01/20 11:36:27;;;;;;;9.18;7.33;;;;;;;13.96;44.27;98852.58;1703279;82;21045;-58
2022/01/20 11:39:03;;;;;;;8.98;7.37;;;;;;;13.96;44.22;98845.41;1725544;82;21546;-59
2022/01/20 11:41:43;;;;;;;8.68;7.40;;;;;;;13.96;44.16;98839.22;1730046;82;22142;-59
2022/01/20 11:44:14;;;;;;;8.08;6.87;;;;;;;13.95;44.13;98834.93;1732641;80;21601;-64
2022/01/20 11:46:46;;;;;;;8.48;6.50;;;;;;;13.94;44.08;98840.77;1730847;80;21112;-60
2022/01/20 11:49:14;;;;;;;7.62;6.83;;;;;;;13.91;44.02;98830.52;1742130;82;21076;-59
2022/01/20 11:52:00;;;;;;;9.98;7.25;;;;;;;13.88;44.04;98844.28;1734358;80;21631;-58
2022/01/20 11:54:41;;;;;;;7.95;6.97;;;;;;;13.85;44.00;98838.05;1724735;82;21125;-58
2022/01/20 11:57:15;;;;;;;7.35;6.45;;;;;;;13.82;43.97;98842.99;1734943;80;21019;-59
2022/01/20 11:59:45;;;;;;;8.38;6.85;;;;;;;13.78;43.99;98841.25;1739984;82;21085;-58
2022/01/20 12:02:28;;;;;;;8.50;7.35;;;;;;;13.75;43.98;98838.99;1739762;80;21105;-59
2022/01/20 12:04:56;;;;;;;8.25;6.62;;;;;;;13.71;43.98;98827.95;1735585;81;21487;-59
2022/01/20 12:07:29;;;;;;;7.05;6.35;;;;;;;13.67;43.96;98831.23;1743591;80;21140;-60
2022/01/20 12:10:12;;;;;;;7.37;6.10;;;;;;;13.63;43.98;98819.33;1745087;80;20988;-57
2022/01/20 12:12:39;;;;;;;7.25;6.55;;;;;;;13.59;43.97;98806.92;1733843;80;21042;-61
2022/01/20 12:15:14;;;;;;;8.15;6.72;;;;;;;13.55;43.96;98800.38;1737387;80;21038;-58
2022/01/20 12:17:52;;;;;;;7.97;5.97;;;;;;;13.53;43.95;98799.23;1741656;80;21054;-60
2022/01/20 12:20:20;;;;;;;10.18;8.08;;;;;;;13.50;43.91;98738.80;1744801;82;21794;-60
2022/01/20 12:22:46;;;;;;;12.18;8.38;;;;;;;13.52;44.76;98729.58;1735006;82;21034;-59
2022/01/20 12:25:19;;;;;;;9.65;8.05;;;;;;;13.55;46.87;98726.99;1745760;80;21050;-59
2022/01/20 12:27:46;;;;;;;;;;;;;;;13.60;48.42;98733.86;1748138;80;21100;-60
2022/01/20 12:30:24;;;;;;;12.45;8.58;;;;;;;13.63;49.41;98728.60;1739956;82;20165;-60
2022/01/20 12:33:00;;;;;;;10.85;8.75;;;;;;;13.67;50.10;98723.14;1737171;82;21147;-59
2022/01/20 12:35:42;;;;;;;9.35;8.20;;;;;;;13.69;50.73;98732.56;1731727;80;21026;-60
2022/01/20 12:38:27;;;;;;;9.48;8.25;;;;;;;13.72;51.19;98728.66;1740833;80;21066;-60
2022/01/20 12:41:10;;;;;;;11.55;8.90;;;;;;;13.75;51.53;98719.72;1737926;80;21145;-59
2022/01/20 12:43:42;;;;;;;11.63;8.10;;;;;;;13.78;51.97;98733.14;1724430;82;21037;-60